createdAt,value
2022-10-29T00:01:57.212Z,14.97
2022-10-29T00:08:17.174Z,15
2022-10-29T00:14:40.192Z,15.04
2022-10-29T00:21:00.159Z,15.04
2022-10-29T00:27:23.233Z,15.05
2022-10-29T00:33:43.196Z,15.07
2022-10-29T00:40:06.175Z,15.09
2022-10-29T00:46:26.192Z,15.07
2022-10-29T00:52:49.207Z,15.06
2022-10-29T00:59:09.185Z,15.04
2022-10-29T01:05:32.207Z,15.01
2022-10-29T01:11:52.174Z,14.98
2022-10-29T01:18:15.181Z,14.96
2022-10-29T01:24:35.184Z,14.94
2022-10-29T01:30:58.211Z,14.91
2022-10-29T01:37:18.183Z,14.88
2022-10-29T01:43:41.181Z,14.83
2022-10-29T01:50:01.222Z,14.77
2022-10-29T01:56:24.179Z,14.71
2022-10-29T02:02:48.182Z,14.64
2022-10-29T02:09:07.185Z,14.6
2022-10-29T02:15:27.185Z,14.58
2022-10-29T02:21:50.150Z,14.54
2022-10-29T02:28:10.298Z,14.52
2022-10-29T02:34:33.185Z,14.51
2022-10-29T02:40:53.165Z,14.49
2022-10-29T02:47:16.242Z,14.44
2022-10-29T02:53:36.158Z,14.41
2022-10-29T02:59:59.207Z,14.36
2022-10-29T03:06:19.183Z,14.25
2022-10-29T03:12:42.197Z,14.17
2022-10-29T03:19:02.203Z,14.12
2022-10-29T03:42:26.167Z,13.99
2022-10-29T03:48:49.148Z,13.99
2022-10-29T03:55:09.173Z,13.99
2022-10-29T04:01:32.312Z,13.96
2022-10-29T04:07:52.141Z,13.93
2022-10-29T04:14:15.154Z,13.9
2022-10-29T04:20:45.578Z,13.9
2022-10-29T04:33:18.136Z,13.95
2022-10-29T04:39:41.187Z,13.97
2022-10-29T04:46:01.188Z,13.99
2022-10-29T04:52:24.147Z,13.99
2022-10-29T04:58:44.215Z,14
2022-10-29T05:05:07.179Z,14
2022-10-29T05:11:27.201Z,14.01
2022-10-29T05:17:50.202Z,14.01
2022-10-29T05:24:10.182Z,14.03
2022-10-29T05:30:33.220Z,14.04
2022-10-29T05:36:53.177Z,14.06
2022-10-29T05:43:16.148Z,14.08
2022-10-29T05:49:36.217Z,14.13
2022-10-29T05:55:59.172Z,14.18
2022-10-29T06:02:19.330Z,14.23
2022-10-29T06:08:42.169Z,14.29
2022-10-29T06:15:02.172Z,14.36
2022-10-29T06:21:25.214Z,14.43
2022-10-29T06:27:45.144Z,14.51
2022-10-29T06:34:08.223Z,14.57
2022-10-29T06:40:28.269Z,14.63
2022-10-29T06:46:51.181Z,14.69
2022-10-29T06:53:11.203Z,14.75
2022-10-29T06:59:34.181Z,14.84
2022-10-29T07:05:54.180Z,14.96
2022-10-29T07:12:17.192Z,15.07
2022-10-29T07:18:37.200Z,15.16
2022-10-29T07:25:01.168Z,15.24
2022-10-29T07:31:20.206Z,15.33
2022-10-29T07:37:43.204Z,15.42
2022-10-29T07:44:03.197Z,15.53
2022-10-29T07:50:26.189Z,15.63
2022-10-29T07:56:46.909Z,15.74
2022-10-29T08:03:09.175Z,15.87
2022-10-29T08:09:29.226Z,15.99
2022-10-29T08:15:52.220Z,16.12
2022-10-29T08:22:12.150Z,16.27
2022-10-29T08:28:35.908Z,16.39
2022-10-29T08:34:55.179Z,16.52
2022-10-29T08:41:18.198Z,16.6
2022-10-29T08:47:38.233Z,16.64
2022-10-29T09:03:30.713Z,16.99
2022-10-29T09:09:50.304Z,17.21
2022-10-29T09:16:13.201Z,17.41
2022-10-29T09:22:33.320Z,17.6
2022-10-29T09:28:56.275Z,17.74
2022-10-29T09:35:16.358Z,17.9
2022-10-29T09:41:39.195Z,18.06
2022-10-29T09:47:59.507Z,18.23
2022-10-29T09:54:22.229Z,18.44
2022-10-29T10:00:42.194Z,18.64
2022-10-29T10:07:05.268Z,18.77
2022-10-29T10:13:27.323Z,18.89
2022-10-29T10:19:48.213Z,19.04
2022-10-29T10:26:08.275Z,19.21
2022-10-29T10:32:31.206Z,19.38
2022-10-29T10:38:51.212Z,19.57
2022-10-29T10:45:14.153Z,19.78
2022-10-29T10:51:34.179Z,19.99
2022-10-29T10:57:57.195Z,20.14
2022-10-29T11:04:17.162Z,20.2
2022-10-29T11:10:40.162Z,20.16
2022-10-29T11:17:00.176Z,20.09
2022-10-29T11:23:23.181Z,20.11
2022-10-29T11:29:47.363Z,20.17
2022-10-29T11:36:06.246Z,20.29
2022-10-29T11:42:26.155Z,20.4
2022-10-29T11:48:49.147Z,20.49
2022-10-29T11:55:09.210Z,20.61
2022-10-29T12:01:32.204Z,20.77
2022-10-29T12:07:52.177Z,20.92
2022-10-29T12:14:15.172Z,21.04
2022-10-29T12:20:35.151Z,21.12
2022-10-29T12:26:58.165Z,21.16
2022-10-29T12:33:18.179Z,21.25
2022-10-29T12:39:41.148Z,21.27
2022-10-29T12:52:24.180Z,21.22
2022-10-29T12:58:44.182Z,21.23
2022-10-29T13:05:07.229Z,21.31
2022-10-29T13:11:27.194Z,21.36
2022-10-29T13:17:50.190Z,21.41
2022-10-29T13:24:10.155Z,21.47
2022-10-29T13:30:33.217Z,21.52
2022-10-29T13:36:53.164Z,21.54
2022-10-29T13:43:16.163Z,21.58
2022-10-29T13:49:36.195Z,21.6
2022-10-29T13:55:59.151Z,21.58
2022-10-29T14:02:19.319Z,21.58
2022-10-29T14:08:42.183Z,21.6
2022-10-29T14:15:02.167Z,21.62
2022-10-29T14:21:25.174Z,21.65
2022-10-29T14:37:50.105Z,21.71
2022-10-29T14:44:10.143Z,21.7
2022-10-29T14:50:33.276Z,21.63
2022-10-29T14:56:53.199Z,21.46
2022-10-29T15:03:16.232Z,21.28
2022-10-29T15:09:36.181Z,21.09
2022-10-29T15:15:59.304Z,20.92
2022-10-29T15:22:19.180Z,20.76
2022-10-29T15:28:42.280Z,20.62
2022-10-29T15:35:02.190Z,20.47
2022-10-29T15:41:25.165Z,20.3
2022-10-29T15:47:45.279Z,20.19
2022-10-29T15:54:08.206Z,20.08
2022-10-29T16:00:28.165Z,19.93
2022-10-29T16:06:51.227Z,19.76
2022-10-29T16:13:11.248Z,19.53
2022-10-29T16:19:34.142Z,19.37
2022-10-29T16:25:54.198Z,19.27
2022-10-29T16:32:17.223Z,19.21
2022-10-29T16:38:37.131Z,19.15
2022-10-29T16:45:00.353Z,19.07
2022-10-29T16:51:20.234Z,18.98
2022-10-29T16:57:43.179Z,18.92
2022-10-29T17:04:03.312Z,18.83
2022-10-29T17:10:26.399Z,18.74
2022-10-29T17:16:46.384Z,18.64
2022-10-29T17:23:09.467Z,18.53
2022-10-29T17:29:32.512Z,18.39
2022-10-29T17:35:52.172Z,18.3
2022-10-29T17:42:12.246Z,18.23
2022-10-29T17:48:35.216Z,18.18
2022-10-29T17:54:55.240Z,18.12
2022-10-29T18:01:18.381Z,18.06
2022-10-29T18:07:38.195Z,18.03
2022-10-29T18:14:01.205Z,17.98
2022-10-29T18:20:21.262Z,17.93
2022-10-29T18:26:44.250Z,17.87
2022-10-29T18:33:04.273Z,17.8
2022-10-29T18:39:27.196Z,17.74
2022-10-29T18:45:47.320Z,17.66
2022-10-29T18:52:10.215Z,17.61
2022-10-29T18:58:30.172Z,17.54
2022-10-29T19:04:53.333Z,17.5
2022-10-29T19:11:13.164Z,17.48
2022-10-29T19:17:36.287Z,17.46
2022-10-29T19:23:56.259Z,17.44
2022-10-29T19:41:28.076Z,17.32
2022-10-29T19:47:48.163Z,17.23
2022-10-29T19:54:11.151Z,17.14
2022-10-29T20:00:31.172Z,17.06
2022-10-29T20:06:54.153Z,16.99
2022-10-29T20:13:14.360Z,16.95
2022-10-29T20:19:37.173Z,16.91
2022-10-29T20:25:57.184Z,16.84
2022-10-29T20:32:20.159Z,16.79
2022-10-29T20:38:40.175Z,16.74
2022-10-29T20:45:03.173Z,16.7
2022-10-29T20:51:23.204Z,16.66
2022-10-29T20:57:46.239Z,16.6
2022-10-29T21:04:06.146Z,16.58
2022-10-29T21:10:29.147Z,16.58
2022-10-29T21:16:49.200Z,16.58
2022-10-29T21:23:12.222Z,16.54
2022-10-29T21:29:32.178Z,16.51
2022-10-29T21:35:55.172Z,16.5
2022-10-29T21:42:15.170Z,16.48
2022-10-29T21:48:38.196Z,16.48
2022-10-29T21:54:58.175Z,16.49
2022-10-29T22:20:32.193Z,16.48
2022-10-29T22:26:52.144Z,16.51
2022-10-29T22:33:15.201Z,16.52
2022-10-29T22:39:35.195Z,16.52
2022-10-29T22:45:58.177Z,16.5
2022-10-29T22:52:18.165Z,16.49
2022-10-29T22:58:41.185Z,16.49
2022-10-29T23:05:01.162Z,16.51
2022-10-29T23:11:24.165Z,16.51
2022-10-29T23:17:44.191Z,16.48
2022-10-29T23:24:07.142Z,16.46
2022-10-29T23:30:27.179Z,16.46
2022-10-29T23:36:50.189Z,16.45
2022-10-29T23:43:10.179Z,16.46
2022-10-29T23:49:33.186Z,16.47
2022-10-29T23:55:53.180Z,16.47
